sensor_id;sensor_type;location;lat;lon;timestamp;pressure;altitude;pressure_sealevel;temperature;humidity
68226;BME280;55045;49.410;11.030;2023-04-21T00:02:01;97752.56;;;7.82;100.00
68226;BME280;55045;49.410;11.030;2023-04-21T00:05:05;97744.19;;;7.56;100.00
68226;BME280;55045;49.410;11.030;2023-04-21T00:08:11;97738.13;;;7.57;100.00
68226;BME280;55045;49.410;11.030;2023-04-21T00:11:15;97736.31;;;7.79;100.00
68226;BME280;55045;49.410;11.030;2023-04-21T00:14:19;97736.09;;;7.43;100.00
68226;BME280;55045;49.410;11.030;2023-04-21T00:17:22;97722.38;;;7.43;100.00
68226;BME280;55045;49.410;11.030;2023-04-21T00:20:26;97715.84;;;7.34;100.00
68226;BME280;55045;49.410;11.030;2023-04-21T00:23:31;97723.94;;;7.05;100.00
68226;BME280;55045;49.410;11.030;2023-04-21T00:26:35;97716.41;;;7.00;100.00
68226;BME280;55045;49.410;11.030;2023-04-21T00:29:38;97715.91;;;6.90;100.00
68226;BME280;55045;49.410;11.030;2023-04-21T00:32:42;97711.63;;;6.69;100.00
68226;BME280;55045;49.410;11.030;2023-04-21T00:35:45;97713.13;;;6.75;100.00
68226;BME280;55045;49.410;11.030;2023-04-21T00:38:50;97707.03;;;6.54;100.00
68226;BME280;55045;49.410;11.030;2023-04-21T00:41:53;97702.50;;;6.60;100.00
68226;BME280;55045;49.410;11.030;2023-04-21T00:44:57;97706.34;;;6.50;100.00
68226;BME280;55045;49.410;11.030;2023-04-21T00:48:00;97716.06;;;6.44;100.00
68226;BME280;55045;49.410;11.030;2023-04-21T00:51:04;97716.88;;;6.44;100.00
68226;BME280;55045;49.410;11.030;2023-04-21T00:54:10;97711.75;;;6.44;100.00
68226;BME280;55045;49.410;11.030;2023-04-21T00:57:14;97713.69;;;6.38;100.00
68226;BME280;55045;49.410;11.030;2023-04-21T01:00:18;97725.53;;;6.42;100.00
68226;BME280;55045;49.410;11.030;2023-04-21T01:03:21;97728.34;;;6.14;100.00
68226;BME280;55045;49.410;11.030;2023-04-21T01:06:26;97728.59;;;6.29;100.00
68226;BME280;55045;49.410;11.030;2023-04-21T01:09:32;97740.56;;;6.30;100.00
68226;BME280;55045;49.410;11.030;2023-04-21T01:12:42;97739.47;;;6.14;100.00
68226;BME280;55045;49.410;11.030;2023-04-21T01:15:46;97737.38;;;6.00;100.00
68226;BME280;55045;49.410;11.030;2023-04-21T01:18:49;97740.53;;;6.09;100.00
68226;BME280;55045;49.410;11.030;2023-04-21T01:21:55;97739.75;;;6.06;100.00
68226;BME280;55045;49.410;11.030;2023-04-21T01:25:01;97733.91;;;6.01;100.00
68226;BME280;55045;49.410;11.030;2023-04-21T01:28:04;97751.47;;;5.90;100.00
68226;BME280;55045;49.410;11.030;2023-04-21T01:31:08;97754.31;;;5.83;100.00
68226;BME280;55045;49.410;11.030;2023-04-21T01:34:11;97748.19;;;5.85;100.00
68226;BME280;55045;49.410;11.030;2023-04-21T01:37:18;97757.66;;;5.85;100.00
68226;BME280;55045;49.410;11.030;2023-04-21T01:40:21;97757.75;;;5.82;100.00
68226;BME280;55045;49.410;11.030;2023-04-21T01:43:24;97756.06;;;5.81;100.00
68226;BME280;55045;49.410;11.030;2023-04-21T01:46:28;97752.81;;;6.00;100.00
68226;BME280;55045;49.410;11.030;2023-04-21T01:49:31;97752.72;;;5.78;100.00
68226;BME280;55045;49.410;11.030;2023-04-21T01:52:36;97753.78;;;5.73;100.00
68226;BME280;55045;49.410;11.030;2023-04-21T01:55:39;97758.66;;;6.29;100.00
68226;BME280;55045;49.410;11.030;2023-04-21T01:58:43;97753.91;;;5.95;100.00
68226;BME280;55045;49.410;11.030;2023-04-21T02:01:47;97753.50;;;5.56;100.00
68226;BME280;55045;49.410;11.030;2023-04-21T02:04:51;97754.09;;;5.64;100.00
68226;BME280;55045;49.410;11.030;2023-04-21T02:07:56;97757.19;;;6.22;100.00
68226;BME280;55045;49.410;11.030;2023-04-21T02:11:00;97756.59;;;5.65;100.00
68226;BME280;55045;49.410;11.030;2023-04-21T02:14:03;97749.97;;;5.33;100.00
68226;BME280;55045;49.410;11.030;2023-04-21T02:17:06;97751.22;;;5.22;100.00
68226;BME280;55045;49.410;11.030;2023-04-21T02:20:10;97753.09;;;5.16;100.00
68226;BME280;55045;49.410;11.030;2023-04-21T02:23:15;97742.25;;;5.07;100.00
68226;BME280;55045;49.410;11.030;2023-04-21T02:26:19;97744.03;;;5.31;100.00
68226;BME280;55045;49.410;11.030;2023-04-21T02:29:22;97744.16;;;5.02;100.00
68226;BME280;55045;49.410;11.030;2023-04-21T02:32:25;97736.03;;;4.87;100.00
68226;BME280;55045;49.410;11.030;2023-04-21T02:35:29;97747.28;;;5.10;100.00
68226;BME280;55045;49.410;11.030;2023-04-21T02:38:36;97744.94;;;5.04;100.00
68226;BME280;55045;49.410;11.030;2023-04-21T02:41:39;97742.88;;;4.87;100.00
68226;BME280;55045;49.410;11.030;2023-04-21T02:44:42;97734.44;;;4.83;100.00
68226;BME280;55045;49.410;11.030;2023-04-21T02:47:45;97735.22;;;4.85;100.00
68226;BME280;55045;49.410;11.030;2023-04-21T02:50:49;97737.81;;;4.85;100.00
68226;BME280;55045;49.410;11.030;2023-04-21T02:53:55;97741.44;;;4.78;100.00
68226;BME280;55045;49.410;11.030;2023-04-21T02:56:59;97734.00;;;4.69;100.00
68226;BME280;55045;49.410;11.030;2023-04-21T03:00:03;97736.50;;;4.72;100.00
68226;BME280;55045;49.410;11.030;2023-04-21T03:03:08;97732.28;;;4.70;100.00
68226;BME280;55045;49.410;11.030;2023-04-21T03:06:12;97733.78;;;4.77;100.00
68226;BME280;55045;49.410;11.030;2023-04-21T03:09:16;97735.75;;;4.69;100.00
68226;BME280;55045;49.410;11.030;2023-04-21T03:12:20;97732.34;;;4.68;100.00
68226;BME280;55045;49.410;11.030;2023-04-21T03:15:23;97728.59;;;4.78;100.00
68226;BME280;55045;49.410;11.030;2023-04-21T03:18:28;97734.06;;;5.22;100.00
68226;BME280;55045;49.410;11.030;2023-04-21T03:21:31;97736.78;;;4.63;100.00
68226;BME280;55045;49.410;11.030;2023-04-21T03:24:36;97731.75;;;4.60;100.00
68226;BME280;55045;49.410;11.030;2023-04-21T03:27:39;97738.28;;;4.70;100.00
68226;BME280;55045;49.410;11.030;2023-04-21T03:30:42;97731.13;;;4.80;100.00
68226;BME280;55045;49.410;11.030;2023-04-21T03:34:51;97737.59;;;4.65;100.00
68226;BME280;55045;49.410;11.030;2023-04-21T03:37:54;97753.03;;;5.69;100.00
68226;BME280;55045;49.410;11.030;2023-04-21T03:40:58;97743.44;;;4.70;100.00
68226;BME280;55045;49.410;11.030;2023-04-21T03:44:01;97743.88;;;4.55;100.00
68226;BME280;55045;49.410;11.030;2023-04-21T03:47:04;97752.31;;;4.60;100.00
68226;BME280;55045;49.410;11.030;2023-04-21T03:50:09;97754.53;;;4.43;100.00
68226;BME280;55045;49.410;11.030;2023-04-21T03:53:12;97751.84;;;4.46;100.00
68226;BME280;55045;49.410;11.030;2023-04-21T03:56:16;97748.41;;;4.47;100.00
68226;BME280;55045;49.410;11.030;2023-04-21T03:59:19;97752.47;;;4.24;100.00
68226;BME280;55045;49.410;11.030;2023-04-21T04:02:22;97753.94;;;4.33;100.00
68226;BME280;55045;49.410;11.030;2023-04-21T04:05:27;97752.66;;;4.48;100.00
68226;BME280;55045;49.410;11.030;2023-04-21T04:08:30;97758.72;;;4.16;100.00
68226;BME280;55045;49.410;11.030;2023-04-21T04:11:34;97753.94;;;4.33;100.00
68226;BME280;55045;49.410;11.030;2023-04-21T04:14:37;97757.66;;;4.23;100.00
68226;BME280;55045;49.410;11.030;2023-04-21T04:17:40;97745.19;;;4.11;100.00
68226;BME280;55045;49.410;11.030;2023-04-21T04:20:45;97748.00;;;4.01;100.00
68226;BME280;55045;49.410;11.030;2023-04-21T04:23:49;97755.09;;;4.52;100.00
68226;BME280;55045;49.410;11.030;2023-04-21T04:26:52;97760.25;;;3.92;100.00
68226;BME280;55045;49.410;11.030;2023-04-21T04:29:56;97756.94;;;3.87;100.00
68226;BME280;55045;49.410;11.030;2023-04-21T04:33:00;97706.88;;;3.73;100.00
68226;BME280;55045;49.410;11.030;2023-04-21T04:36:05;97754.06;;;3.99;100.00
68226;BME280;55045;49.410;11.030;2023-04-21T04:39:08;97749.75;;;4.01;100.00
68226;BME280;55045;49.410;11.030;2023-04-21T04:42:13;97753.44;;;4.22;100.00
68226;BME280;55045;49.410;11.030;2023-04-21T04:45:16;97751.91;;;4.44;100.00
68226;BME280;55045;49.410;11.030;2023-04-21T04:48:23;97750.38;;;4.09;100.00
68226;BME280;55045;49.410;11.030;2023-04-21T04:51:27;97749.44;;;4.12;100.00
68226;BME280;55045;49.410;11.030;2023-04-21T04:54:31;97752.50;;;3.93;100.00
68226;BME280;55045;49.410;11.030;2023-04-21T04:57:34;97747.56;;;3.86;100.00
68226;BME280;55045;49.410;11.030;2023-04-21T05:00:37;97753.94;;;3.72;100.00
68226;BME280;55045;49.410;11.030;2023-04-21T05:03:41;97757.19;;;3.79;100.00
68226;BME280;55045;49.410;11.030;2023-04-21T05:06:46;97758.91;;;3.79;100.00
68226;BME280;55045;49.410;11.030;2023-04-21T05:09:49;97759.84;;;3.74;100.00
68226;BME280;55045;49.410;11.030;2023-04-21T05:12:52;97756.28;;;4.11;100.00
68226;BME280;55045;49.410;11.030;2023-04-21T05:15:59;97765.50;;;4.48;100.00
68226;BME280;55045;49.410;11.030;2023-04-21T05:19:03;97764.78;;;4.13;100.00
68226;BME280;55045;49.410;11.030;2023-04-21T05:22:08;97767.09;;;3.91;100.00
68226;BME280;55045;49.410;11.030;2023-04-21T05:25:11;97766.75;;;4.03;100.00
68226;BME280;55045;49.410;11.030;2023-04-21T05:28:16;97765.16;;;4.30;100.00
68226;BME280;55045;49.410;11.030;2023-04-21T05:31:19;97765.19;;;4.29;100.00
68226;BME280;55045;49.410;11.030;2023-04-21T05:34:22;97771.09;;;4.32;100.00
68226;BME280;55045;49.410;11.030;2023-04-21T05:37:27;97767.09;;;4.52;100.00
68226;BME280;55045;49.410;11.030;2023-04-21T05:40:31;97770.34;;;4.57;100.00
68226;BME280;55045;49.410;11.030;2023-04-21T05:43:34;97769.19;;;4.67;100.00
68226;BME280;55045;49.410;11.030;2023-04-21T05:46:37;97774.59;;;4.58;100.00
68226;BME280;55045;49.410;11.030;2023-04-21T05:49:52;97768.81;;;4.51;100.00
68226;BME280;55045;49.410;11.030;2023-04-21T05:52:58;97772.56;;;4.69;100.00
68226;BME280;55045;49.410;11.030;2023-04-21T05:56:02;97769.09;;;4.98;100.00
68226;BME280;55045;49.410;11.030;2023-04-21T05:59:05;97764.56;;;5.33;100.00
68226;BME280;55045;49.410;11.030;2023-04-21T06:02:09;97773.47;;;5.74;100.00
68226;BME280;55045;49.410;11.030;2023-04-21T06:05:12;97758.09;;;6.21;100.00
68226;BME280;55045;49.410;11.030;2023-04-21T06:08:17;97768.31;;;6.22;100.00
68226;BME280;55045;49.410;11.030;2023-04-21T06:11:20;97772.97;;;5.88;100.00
68226;BME280;55045;49.410;11.030;2023-04-21T06:14:23;97784.16;;;6.12;100.00
68226;BME280;55045;49.410;11.030;2023-04-21T06:17:26;97771.75;;;5.99;100.00
68226;BME280;55045;49.410;11.030;2023-04-21T06:20:32;97775.44;;;6.39;100.00
68226;BME280;55045;49.410;11.030;2023-04-21T06:23:36;97762.19;;;6.03;100.00
68226;BME280;55045;49.410;11.030;2023-04-21T06:26:39;97762.06;;;6.29;100.00
68226;BME280;55045;49.410;11.030;2023-04-21T06:29:43;97758.25;;;6.40;100.00
68226;BME280;55045;49.410;11.030;2023-04-21T06:32:46;97739.03;;;6.48;100.00
68226;BME280;55045;49.410;11.030;2023-04-21T06:35:49;97740.59;;;6.74;100.00
68226;BME280;55045;49.410;11.030;2023-04-21T06:38:54;97743.72;;;7.04;100.00
68226;BME280;55045;49.410;11.030;2023-04-21T06:41:57;97740.19;;;7.49;100.00
68226;BME280;55045;49.410;11.030;2023-04-21T06:45:01;97722.75;;;7.74;100.00
68226;BME280;55045;49.410;11.030;2023-04-21T06:48:05;97720.97;;;8.53;100.00
68226;BME280;55045;49.410;11.030;2023-04-21T06:51:09;97716.72;;;8.88;100.00
68226;BME280;55045;49.410;11.030;2023-04-21T06:54:13;97722.03;;;8.85;100.00
68226;BME280;55045;49.410;11.030;2023-04-21T06:57:17;97724.44;;;8.71;100.00
68226;BME280;55045;49.410;11.030;2023-04-21T07:00:20;97726.22;;;8.52;100.00
68226;BME280;55045;49.410;11.030;2023-04-21T07:03:23;97724.72;;;8.65;100.00
68226;BME280;55045;49.410;11.030;2023-04-21T07:06:27;97722.47;;;8.76;100.00
68226;BME280;55045;49.410;11.030;2023-04-21T07:09:31;97727.28;;;8.84;100.00
68226;BME280;55045;49.410;11.030;2023-04-21T07:12:35;97732.81;;;8.57;100.00
68226;BME280;55045;49.410;11.030;2023-04-21T07:15:38;97745.56;;;8.62;100.00
68226;BME280;55045;49.410;11.030;2023-04-21T07:18:42;97735.53;;;8.92;100.00
68226;BME280;55045;49.410;11.030;2023-04-21T07:21:45;97732.38;;;8.85;100.00
68226;BME280;55045;49.410;11.030;2023-04-21T07:24:50;97726.03;;;9.27;100.00
68226;BME280;55045;49.410;11.030;2023-04-21T07:27:53;97717.28;;;9.64;100.00
68226;BME280;55045;49.410;11.030;2023-04-21T07:30:56;97716.19;;;10.19;100.00
68226;BME280;55045;49.410;11.030;2023-04-21T07:34:01;97715.25;;;10.84;100.00
68226;BME280;55045;49.410;11.030;2023-04-21T07:37:05;97715.91;;;10.88;100.00
68226;BME280;55045;49.410;11.030;2023-04-21T07:40:10;97716.53;;;11.67;100.00
68226;BME280;55045;49.410;11.030;2023-04-21T07:43:14;97711.97;;;11.57;100.00
68226;BME280;55045;49.410;11.030;2023-04-21T07:46:17;97707.81;;;11.68;100.00
68226;BME280;55045;49.410;11.030;2023-04-21T07:49:25;97713.41;;;11.91;100.00
68226;BME280;55045;49.410;11.030;2023-04-21T07:52:28;97710.81;;;11.91;100.00
68226;BME280;55045;49.410;11.030;2023-04-21T07:55:32;97707.44;;;12.46;100.00
68226;BME280;55045;49.410;11.030;2023-04-21T07:58:38;97703.97;;;12.18;100.00
68226;BME280;55045;49.410;11.030;2023-04-21T08:01:41;97699.72;;;11.59;100.00
68226;BME280;55045;49.410;11.030;2023-04-21T08:04:44;97692.69;;;12.87;100.00
68226;BME280;55045;49.410;11.030;2023-04-21T08:07:48;97702.28;;;12.17;100.00
68226;BME280;55045;49.410;11.030;2023-04-21T08:10:52;97689.22;;;12.87;100.00
68226;BME280;55045;49.410;11.030;2023-04-21T08:13:56;97690.16;;;12.86;100.00
68226;BME280;55045;49.410;11.030;2023-04-21T08:17:18;97692.09;;;12.55;100.00
68226;BME280;55045;49.410;11.030;2023-04-21T08:20:21;97691.81;;;13.14;100.00
68226;BME280;55045;49.410;11.030;2023-04-21T08:23:25;97684.47;;;13.20;100.00
68226;BME280;55045;49.410;11.030;2023-04-21T08:26:34;97688.44;;;13.26;100.00
68226;BME280;55045;49.410;11.030;2023-04-21T08:29:37;97682.34;;;13.78;100.00
68226;BME280;55045;49.410;11.030;2023-04-21T08:32:41;97673.28;;;13.83;100.00
68226;BME280;55045;49.410;11.030;2023-04-21T08:35:44;97681.78;;;14.24;100.00
68226;BME280;55045;49.410;11.030;2023-04-21T08:39:05;97680.13;;;14.23;100.00
68226;BME280;55045;49.410;11.030;2023-04-21T08:42:10;97682.09;;;14.32;100.00
68226;BME280;55045;49.410;11.030;2023-04-21T08:45:14;97676.81;;;14.57;100.00
68226;BME280;55045;49.410;11.030;2023-04-21T08:48:18;97672.56;;;14.56;100.00
68226;BME280;55045;49.410;11.030;2023-04-21T08:51:26;97671.78;;;14.30;100.00
68226;BME280;55045;49.410;11.030;2023-04-21T08:54:31;97664.09;;;14.40;100.00
68226;BME280;55045;49.410;11.030;2023-04-21T08:57:35;97671.31;;;14.36;100.00
68226;BME280;55045;49.410;11.030;2023-04-21T09:00:39;97671.72;;;14.43;100.00
68226;BME280;55045;49.410;11.030;2023-04-21T09:03:43;97672.16;;;14.50;100.00
68226;BME280;55045;49.410;11.030;2023-04-21T09:06:47;97673.03;;;14.25;100.00
68226;BME280;55045;49.410;11.030;2023-04-21T09:09:51;97681.66;;;14.38;100.00
68226;BME280;55045;49.410;11.030;2023-04-21T09:12:56;97665.41;;;14.22;100.00
68226;BME280;55045;49.410;11.030;2023-04-21T09:16:00;97661.28;;;13.81;100.00
68226;BME280;55045;49.410;11.030;2023-04-21T09:19:12;97680.69;;;13.90;100.00
68226;BME280;55045;49.410;11.030;2023-04-21T09:22:16;97691.50;;;13.96;100.00
68226;BME280;55045;49.410;11.030;2023-04-21T09:25:20;97681.41;;;14.04;100.00
68226;BME280;55045;49.410;11.030;2023-04-21T09:28:29;97678.91;;;13.90;100.00
68226;BME280;55045;49.410;11.030;2023-04-21T09:34:51;97679.94;;;14.13;100.00
68226;BME280;55045;49.410;11.030;2023-04-21T09:37:54;97673.22;;;14.34;100.00
68226;BME280;55045;49.410;11.030;2023-04-21T09:40:58;97661.94;;;14.34;100.00
68226;BME280;55045;49.410;11.030;2023-04-21T09:44:01;97661.94;;;14.47;100.00
68226;BME280;55045;49.410;11.030;2023-04-21T09:47:09;97663.13;;;14.17;100.00
68226;BME280;55045;49.410;11.030;2023-04-21T09:50:15;97662.50;;;14.13;100.00
68226;BME280;55045;49.410;11.030;2023-04-21T09:53:40;97669.72;;;14.10;100.00
68226;BME280;55045;49.410;11.030;2023-04-21T09:56:47;97667.34;;;14.44;100.00
68226;BME280;55045;49.410;11.030;2023-04-21T09:59:54;97664.78;;;15.15;100.00
68226;BME280;55045;49.410;11.030;2023-04-21T10:03:08;97662.59;;;15.09;100.00
68226;BME280;55045;49.410;11.030;2023-04-21T10:06:14;97657.81;;;15.27;99.59
68226;BME280;55045;49.410;11.030;2023-04-21T10:09:20;97655.88;;;15.18;97.98
68226;BME280;55045;49.410;11.030;2023-04-21T10:12:25;97652.19;;;15.55;97.30
68226;BME280;55045;49.410;11.030;2023-04-21T10:15:31;97648.22;;;15.85;94.86
68226;BME280;55045;49.410;11.030;2023-04-21T10:18:35;97648.06;;;15.64;93.45
68226;BME280;55045;49.410;11.030;2023-04-21T10:21:41;97638.78;;;16.27;93.76
68226;BME280;55045;49.410;11.030;2023-04-21T10:24:44;97636.91;;;15.84;93.84
68226;BME280;55045;49.410;11.030;2023-04-21T10:27:48;97621.44;;;16.04;95.84
68226;BME280;55045;49.410;11.030;2023-04-21T10:31:18;97630.81;;;16.83;91.02
68226;BME280;55045;49.410;11.030;2023-04-21T10:34:29;97599.53;;;16.27;90.31
68226;BME280;55045;49.410;11.030;2023-04-21T10:37:39;97612.81;;;16.58;86.39
68226;BME280;55045;49.410;11.030;2023-04-21T10:40:43;97617.03;;;16.81;86.01
68226;BME280;55045;49.410;11.030;2023-04-21T10:43:49;97614.81;;;16.77;91.78
68226;BME280;55045;49.410;11.030;2023-04-21T10:46:53;97615.13;;;16.83;89.87
68226;BME280;55045;49.410;11.030;2023-04-21T10:49:58;97609.84;;;16.51;88.57
68226;BME280;55045;49.410;11.030;2023-04-21T10:53:08;97610.84;;;16.82;84.78
68226;BME280;55045;49.410;11.030;2023-04-21T10:56:12;97601.84;;;16.53;84.96
68226;BME280;55045;49.410;11.030;2023-04-21T10:59:17;97604.03;;;16.48;85.32
68226;BME280;55045;49.410;11.030;2023-04-21T11:02:20;97592.53;;;16.28;90.71
68226;BME280;55045;49.410;11.030;2023-04-21T11:05:28;97592.41;;;16.73;87.31
68226;BME280;55045;49.410;11.030;2023-04-21T11:08:33;97597.09;;;16.69;81.75
68226;BME280;55045;49.410;11.030;2023-04-21T11:11:39;97590.25;;;17.10;82.98
68226;BME280;55045;49.410;11.030;2023-04-21T11:14:43;97592.97;;;16.87;86.53
68226;BME280;55045;49.410;11.030;2023-04-21T11:17:47;97578.06;;;16.45;82.31
68226;BME280;55045;49.410;11.030;2023-04-21T11:20:50;97575.88;;;16.72;84.33
68226;BME280;55045;49.410;11.030;2023-04-21T11:23:56;97564.66;;;17.23;81.92
68226;BME280;55045;49.410;11.030;2023-04-21T11:26:59;97564.81;;;17.73;80.39
68226;BME280;55045;49.410;11.030;2023-04-21T11:30:04;97566.16;;;17.46;81.93
68226;BME280;55045;49.410;11.030;2023-04-21T11:33:08;97561.75;;;17.47;84.20
68226;BME280;55045;49.410;11.030;2023-04-21T11:36:12;97564.94;;;17.20;85.17
68226;BME280;55045;49.410;11.030;2023-04-21T11:39:17;97570.28;;;17.39;81.85
68226;BME280;55045;49.410;11.030;2023-04-21T11:42:25;97527.84;;;17.04;81.69
68226;BME280;55045;49.410;11.030;2023-04-21T11:45:29;97560.31;;;17.33;82.30
68226;BME280;55045;49.410;11.030;2023-04-21T11:48:32;97559.81;;;18.00;84.18
68226;BME280;55045;49.410;11.030;2023-04-21T11:51:37;97557.00;;;17.62;80.20
68226;BME280;55045;49.410;11.030;2023-04-21T11:54:42;97548.22;;;18.12;78.93
68226;BME280;55045;49.410;11.030;2023-04-21T11:57:45;97537.88;;;18.11;78.45
68226;BME280;55045;49.410;11.030;2023-04-21T12:00:49;97535.72;;;17.85;78.87
68226;BME280;55045;49.410;11.030;2023-04-21T12:03:54;97539.34;;;17.94;76.07
68226;BME280;55045;49.410;11.030;2023-04-21T12:06:59;97536.88;;;18.02;74.42
68226;BME280;55045;49.410;11.030;2023-04-21T12:10:09;97536.78;;;18.23;74.89
68226;BME280;55045;49.410;11.030;2023-04-21T12:13:20;97532.53;;;18.61;70.66
68226;BME280;55045;49.410;11.030;2023-04-21T12:16:24;97535.41;;;18.19;67.28
68226;BME280;55045;49.410;11.030;2023-04-21T12:19:36;97531.81;;;18.10;65.57
68226;BME280;55045;49.410;11.030;2023-04-21T12:22:40;97526.72;;;18.38;63.63
68226;BME280;55045;49.410;11.030;2023-04-21T12:25:45;97533.94;;;18.84;62.33
68226;BME280;55045;49.410;11.030;2023-04-21T12:28:49;97527.84;;;18.55;61.12
68226;BME280;55045;49.410;11.030;2023-04-21T12:31:52;97530.06;;;18.50;64.45
68226;BME280;55045;49.410;11.030;2023-04-21T12:34:55;97527.53;;;18.29;60.82
68226;BME280;55045;49.410;11.030;2023-04-21T12:37:58;97518.47;;;18.91;60.07
68226;BME280;55045;49.410;11.030;2023-04-21T12:41:03;97517.06;;;18.67;59.92
68226;BME280;55045;49.410;11.030;2023-04-21T12:44:07;97515.53;;;18.94;58.49
68226;BME280;55045;49.410;11.030;2023-04-21T12:47:10;97516.91;;;18.88;64.67
68226;BME280;55045;49.410;11.030;2023-04-21T12:50:14;97513.31;;;18.89;58.30
68226;BME280;55045;49.410;11.030;2023-04-21T12:53:17;97517.38;;;18.64;61.69
68226;BME280;55045;49.410;11.030;2023-04-21T12:56:22;97510.13;;;18.28;60.29
68226;BME280;55045;49.410;11.030;2023-04-21T12:59:25;97510.16;;;18.66;64.79
68226;BME280;55045;49.410;11.030;2023-04-21T13:02:29;97512.91;;;18.94;59.38
68226;BME280;55045;49.410;11.030;2023-04-21T13:05:38;97510.41;;;19.02;58.34
68226;BME280;55045;49.410;11.030;2023-04-21T13:08:41;97505.31;;;19.38;58.73
68226;BME280;55045;49.410;11.030;2023-04-21T13:11:46;97477.72;;;19.24;58.75
68226;BME280;55045;49.410;11.030;2023-04-21T13:14:49;97501.22;;;19.25;56.30
68226;BME280;55045;49.410;11.030;2023-04-21T13:17:52;97501.69;;;19.58;55.39
68226;BME280;55045;49.410;11.030;2023-04-21T13:20:55;97498.66;;;18.96;59.55
68226;BME280;55045;49.410;11.030;2023-04-21T13:23:59;97492.75;;;18.65;57.66
68226;BME280;55045;49.410;11.030;2023-04-21T13:27:04;97491.72;;;19.05;64.31
68226;BME280;55045;49.410;11.030;2023-04-21T13:30:13;97501.13;;;19.54;56.83
68226;BME280;55045;49.410;11.030;2023-04-21T13:33:17;97502.25;;;19.05;61.63
68226;BME280;55045;49.410;11.030;2023-04-21T13:36:20;97487.13;;;19.17;62.38
68226;BME280;55045;49.410;11.030;2023-04-21T13:39:24;97488.13;;;19.63;57.42
68226;BME280;55045;49.410;11.030;2023-04-21T13:42:29;97488.47;;;19.31;55.29
68226;BME280;55045;49.410;11.030;2023-04-21T13:45:33;97488.72;;;19.37;56.79
68226;BME280;55045;49.410;11.030;2023-04-21T13:48:36;97482.41;;;19.20;49.37
68226;BME280;55045;49.410;11.030;2023-04-21T13:51:40;97486.28;;;19.26;53.75
68226;BME280;55045;49.410;11.030;2023-04-21T13:54:43;97483.63;;;19.36;54.41
68226;BME280;55045;49.410;11.030;2023-04-21T13:57:47;97473.06;;;19.82;52.84
68226;BME280;55045;49.410;11.030;2023-04-21T14:00:50;97487.09;;;19.73;51.17
68226;BME280;55045;49.410;11.030;2023-04-21T14:03:54;97471.31;;;19.26;51.60
68226;BME280;55045;49.410;11.030;2023-04-21T14:06:58;97447.66;;;18.80;58.36
68226;BME280;55045;49.410;11.030;2023-04-21T14:10:01;97469.56;;;19.17;57.50
68226;BME280;55045;49.410;11.030;2023-04-21T14:13:07;97454.00;;;19.34;52.46
68226;BME280;55045;49.410;11.030;2023-04-21T14:16:18;97457.38;;;19.53;54.38
68226;BME280;55045;49.410;11.030;2023-04-21T14:19:21;97453.56;;;19.38;55.61
68226;BME280;55045;49.410;11.030;2023-04-21T14:22:24;97452.94;;;19.54;54.57
68226;BME280;55045;49.410;11.030;2023-04-21T14:25:29;97444.53;;;19.78;50.23
68226;BME280;55045;49.410;11.030;2023-04-21T14:28:33;97442.63;;;19.43;54.88
68226;BME280;55045;49.410;11.030;2023-04-21T14:31:37;97439.38;;;19.31;52.26
68226;BME280;55045;49.410;11.030;2023-04-21T14:34:40;97448.19;;;19.67;48.74
68226;BME280;55045;49.410;11.030;2023-04-21T14:37:43;97441.22;;;19.11;48.20
68226;BME280;55045;49.410;11.030;2023-04-21T14:40:46;97431.75;;;19.28;54.09
68226;BME280;55045;49.410;11.030;2023-04-21T14:43:52;97422.38;;;19.16;52.88
68226;BME280;55045;49.410;11.030;2023-04-21T14:46:57;97424.50;;;19.40;55.67
68226;BME280;55045;49.410;11.030;2023-04-21T14:50:11;97420.16;;;19.48;50.67
68226;BME280;55045;49.410;11.030;2023-04-21T14:53:14;97422.41;;;19.43;49.80
68226;BME280;55045;49.410;11.030;2023-04-21T14:56:18;97427.25;;;19.11;51.59
68226;BME280;55045;49.410;11.030;2023-04-21T14:59:23;97424.56;;;18.83;52.97
68226;BME280;55045;49.410;11.030;2023-04-21T15:02:26;97419.97;;;18.95;55.01
68226;BME280;55045;49.410;11.030;2023-04-21T15:05:31;97413.50;;;19.26;55.00
68226;BME280;55045;49.410;11.030;2023-04-21T15:08:35;97424.22;;;19.70;51.15
68226;BME280;55045;49.410;11.030;2023-04-21T15:11:39;97419.47;;;19.56;54.31
68226;BME280;55045;49.410;11.030;2023-04-21T15:14:43;97414.81;;;19.13;57.22
68226;BME280;55045;49.410;11.030;2023-04-21T15:17:47;97410.47;;;19.21;55.73
68226;BME280;55045;49.410;11.030;2023-04-21T15:20:50;97405.78;;;19.15;53.54
68226;BME280;55045;49.410;11.030;2023-04-21T15:23:53;97405.94;;;19.14;52.52
68226;BME280;55045;49.410;11.030;2023-04-21T15:26:57;97410.28;;;18.95;53.22
68226;BME280;55045;49.410;11.030;2023-04-21T15:30:02;97402.03;;;19.18;56.52
68226;BME280;55045;49.410;11.030;2023-04-21T15:34:51;97393.69;;;18.95;56.91
68226;BME280;55045;49.410;11.030;2023-04-21T15:37:54;97393.31;;;19.17;54.83
68226;BME280;55045;49.410;11.030;2023-04-21T15:40:57;97385.34;;;19.09;55.41
68226;BME280;55045;49.410;11.030;2023-04-21T15:44:02;97385.72;;;18.77;56.67
68226;BME280;55045;49.410;11.030;2023-04-21T15:47:05;97380.41;;;18.96;58.17
68226;BME280;55045;49.410;11.030;2023-04-21T15:50:10;97381.72;;;18.83;57.27
68226;BME280;55045;49.410;11.030;2023-04-21T15:53:14;97384.53;;;18.99;54.99
68226;BME280;55045;49.410;11.030;2023-04-21T15:56:20;97379.63;;;18.86;52.08
68226;BME280;55045;49.410;11.030;2023-04-21T15:59:24;97382.38;;;18.94;53.10
68226;BME280;55045;49.410;11.030;2023-04-21T16:02:27;97382.63;;;19.01;54.66
68226;BME280;55045;49.410;11.030;2023-04-21T16:05:32;97375.75;;;18.90;55.12
68226;BME280;55045;49.410;11.030;2023-04-21T16:08:36;97375.97;;;18.97;55.44